CW9133 Weather Reports


Display with metric or nautical units.
time (UTC)temp
F
wind
direction
speed
MPH
gust
MPH
rain 1hr
in
rain 24hr
in
rain mn
in
humidity
%
barometer
mb
20171216130802 34 198 4.0 8.0 0.00 0.00 0.00 72 1011.1
20171216130302 34 206 5.0 9.0 0.00 0.00 0.00 71 1011.1
20171216125802 34 199 4.0 8.0 0.00 0.00 0.00 71 1011.1
20171216125303 34 195 5.0 10.0 0.00 0.00 0.00 71 1010.9
20171216124802 34 200 5.0 9.0 0.00 0.00 0.00 71 1011.0
20171216124302 34 198 5.0 10.0 0.00 0.00 0.00 70 1011.1
20171216123803 35 216 5.0 10.0 0.00 0.00 0.00 70 1011.1
20171216123302 35 210 5.0 9.0 0.00 0.00 0.00 70 1010.9
20171216122802 35 209 5.0 12.0 0.00 0.00 0.00 70 1010.9
20171216122303 35 198 4.0 12.0 0.00 0.00 0.00 70 1011.0
20171216121803 35 202 4.0 9.0 0.00 0.00 0.00 69 1011.0
20171216121303 35 206 5.0 8.0 0.00 0.00 0.00 69 1010.9
20171216120802 35 216 5.0 6.0 0.00 0.00 0.00 69 1010.7
20171216120302 35 212 6.0 10.0 0.00 0.00 0.00 69 1010.6
20171216115803 35 215 6.0 13.0 0.00 0.00 0.00 69 1010.7
20171216115303 35 211 7.0 10.0 0.00 0.00 0.00 69 1010.6
20171216114802 35 212 6.0 10.0 0.00 0.00 0.00 68 1010.4
20171216114303 35 190 7.0 12.0 0.00 0.00 0.00 68 1010.4
20171216113803 36 196 5.0 12.0 0.00 0.00 0.00 68 1010.4
20171216113303 36 199 5.0 10.0 0.00 0.00 0.00 68 1010.2
20171216112803 36 213 7.0 13.0 0.00 0.00 0.00 68 1010.2
20171216112305 36 204 4.0 9.0 0.00 0.00 0.00 67 1010.3
20171216111803 36 213 5.0 12.0 0.00 0.00 0.00 67 1010.2
20171216111302 36 189 6.0 12.0 0.00 0.00 0.00 67 1010.3
20171216110810 36 202 5.0 10.0 0.00 0.00 0.00 67 1010.3
20171216110323 37 198 7.0 13.0 0.00 0.00 0.00 66 1010.3
20171216105820 37 205 9.0 15.0 0.00 0.00 0.00 66 1010.2
20171216105305 37 208 8.0 16.0 0.00 0.00 0.00 66 1010.2
20171216104803 37 210 7.0 13.0 0.00 0.00 0.00 66 1010.1
20171216104303 37 206 6.0 13.0 0.00 0.00 0.00 66 1010.1
20171216103825 37 196 6.0 12.0 0.00 0.00 0.00 66 1010.1
20171216103303 37 192 4.0 10.0 0.00 0.00 0.00 66 1010.2
20171216102802 37 195 5.0 12.0 0.00 0.00 0.00 66 1010.3
20171216102305 37 208 8.0 13.0 0.00 0.00 0.00 66 1010.2
20171216101802 37 198 9.0 14.0 0.00 0.00 0.00 66 1010.3
20171216101302 37 209 5.0 13.0 0.00 0.00 0.00 66 1010.3
20171216100802 37 210 4.0 12.0 0.00 0.00 0.00 65 1010.2
20171216100302 37 213 7.0 14.0 0.00 0.00 0.00 65 1010.2
20171216095803 37 213 7.0 13.0 0.00 0.00 0.00 65 1010.3
20171216095305 37 202 7.0 15.0 0.00 0.00 0.00 65 1010.6
20171216094803 37 206 12.0 16.0 0.00 0.00 0.00 65 1010.5
20171216094303 37 206 8.0 13.0 0.00 0.00 0.00 65 1010.6
20171216093803 37 190 6.0 12.0 0.00 0.00 0.00 65 1010.7
20171216093303 37 210 7.0 15.0 0.00 0.00 0.00 64 1010.8
20171216092803 37 211 6.0 12.0 0.00 0.00 0.00 64 1010.9
20171216092303 37 220 10.0 15.0 0.00 0.00 0.00 64 1010.9
20171216091803 37 211 9.0 13.0 0.00 0.00 0.00 64 1011.0
20171216091303 37 204 7.0 12.0 0.00 0.00 0.00 63 1010.9
20171216090803 37 209 9.0 16.0 0.00 0.00 0.00 63 1010.9
20171216090303 37 202 8.0 15.0 0.00 0.00 0.00 63 1011.1
20171216085802 37 214 6.0 14.0 0.00 0.00 0.00 63 1011.1
20171216085303 37 211 7.0 12.0 0.00 0.00 0.00 63 1011.1
20171216084803 37 215 9.0 13.0 0.00 0.00 0.00 63 1011.1
20171216084303 37 203 7.0 13.0 0.00 0.00 0.00 63 1011.1
20171216083803 37 206 8.0 14.0 0.00 0.00 0.00 63 1011.1
20171216083302 37 189 9.0 15.0 0.00 0.00 0.00 63 1011.0
20171216082802 37 193 6.0 10.0 0.00 0.00 0.00 63 1011.0
20171216082305 37 207 7.0 14.0 0.00 0.00 0.00 62 1011.2
20171216081803 37 215 7.0 14.0 0.00 0.00 0.00 62 1011.2
20171216081303 37 213 9.0 17.0 0.00 0.00 0.00 62 1011.2
20171216080804 37 205 6.0 14.0 0.00 0.00 0.00 62 1011.2
20171216080302 37 185 9.0 16.0 0.00 0.00 0.00 62 1011.2
20171216075803 37 198 6.0 13.0 0.00 0.00 0.00 62 1011.3
20171216075305 37 207 6.0 14.0 0.00 0.00 0.00 61 1011.3
20171216074803 37 198 7.0 13.0 0.00 0.00 0.00 61 1011.4
20171216074303 36 197 6.0 12.0 0.00 0.00 0.00 60 1011.4
20171216073803 36 201 8.0 12.0 0.00 0.00 0.00 60 1011.5
20171216073303 36 204 6.0 12.0 0.00 0.00 0.00 60 1011.5
20171216072802 37 207 6.0 10.0 0.00 0.00 0.00 59 1011.5
20171216072305 37 204 6.0 13.0 0.00 0.00 0.00 59 1011.6
20171216071803 37 208 5.0 13.0 0.00 0.00 0.00 58 1011.7
20171216071303 37 196 7.0 12.0 0.00 0.00 0.00 58 1011.8
20171216070805 37 190 6.0 12.0 0.00 0.00 0.00 58 1011.8
20171216070303 37 213 7.0 15.0 0.00 0.00 0.00 57 1011.9
20171216065803 37 190 7.0 12.0 0.00 0.00 0.00 57 1011.8
20171216065303 37 215 8.0 14.0 0.00 0.00 0.00 57 1011.9
20171216064803 37 214 9.0 14.0 0.00 0.00 0.00 57 1012.1
20171216064303 37 217 7.0 15.0 0.00 0.00 0.00 57 1012.2
20171216063803 37 198 6.0 14.0 0.00 0.00 0.00 57 1012.1
20171216063304 37 212 9.0 14.0 0.00 0.00 0.00 57 1012.1
20171216062803 37 205 10.0 20.0 0.00 0.00 0.00 56 1012.1
20171216062303 37 214 7.0 16.0 0.00 0.00 0.00 56 1012.3
20171216061803 37 211 10.0 14.0 0.00 0.00 0.00 56 1012.4
20171216061303 37 216 9.0 14.0 0.00 0.00 0.00 56 1012.4
20171216060825 37 224 8.0 13.0 0.00 0.00 0.00 57 1012.4
20171216060303 37 216 6.0 13.0 0.00 0.00 0.00 57 1012.3
20171216055803 37 216 9.0 20.0 0.00 0.00 0.00 56 1012.4
20171216055303 37 201 11.0 16.0 0.00 0.00 0.00 56 1012.5
20171216054803 37 216 9.0 14.0 0.00 0.00 0.00 56 1012.5
20171216054303 37 210 7.0 14.0 0.00 0.00 0.00 57 1012.6
20171216053803 37 213 6.0 13.0 0.00 0.00 0.00 57 1012.6
20171216053303 37 210 10.0 17.0 0.00 0.00 0.00 56 1012.5
20171216052803 37 217 7.0 12.0 0.00 0.00 0.00 57 1012.5
20171216052304 37 219 8.0 15.0 0.00 0.00 0.00 57 1012.4
20171216051803 37 241 7.0 15.0 0.00 0.00 0.00 57 1012.4
20171216051303 37 212 9.0 14.0 0.00 0.00 0.00 56 1012.5
20171216050812 37 219 7.0 14.0 0.00 0.00 0.00 56 1012.4
20171216050303 37 220 10.0 14.0 0.00 0.00 0.00 56 1012.5
20171216045803 37 209 8.0 15.0 0.00 0.00 0.00 56 1012.6
20171216045303 37 215 7.0 13.0 0.00 0.00 0.00 57 1012.7
20171216044804 37 213 8.0 20.0 0.00 0.00 0.00 57 1012.7
20171216044303 37 214 9.0 15.0 0.00 0.00 0.00 57 1012.7
20171216043803 37 219 7.0 17.0 0.00 0.00 0.00 56 1012.7
20171216043304 37 219 9.0 16.0 0.00 0.00 0.00 56 1012.6
20171216042803 37 219 10.0 15.0 0.00 0.00 0.00 56 1012.8
20171216042303 37 220 10.0 16.0 0.00 0.00 0.00 56 1012.8
20171216041803 37 226 6.0 15.0 0.00 0.00 0.00 57 1012.8
20171216041303 37 220 7.0 13.0 0.00 0.00 0.00 57 1012.8
20171216040803 37 209 7.0 13.0 0.00 0.00 0.00 57 1012.7
20171216040304 37 203 8.0 15.0 0.00 0.00 0.00 57 1012.7
20171216035804 37 211 8.0 17.0 0.00 0.00 0.00 57 1012.8
20171216035304 37 209 9.0 13.0 0.00 0.00 0.00 57 1012.7
20171216034803 37 214 7.0 17.0 0.00 0.00 0.00 58 1012.8
20171216034303 37 222 7.0 15.0 0.00 0.00 0.00 58 1012.9
20171216033804 37 224 9.0 15.0 0.00 0.00 0.00 58 1012.8
20171216033304 37 208 7.0 12.0 0.00 0.00 0.00 59 1012.8
20171216032803 37 210 6.0 12.0 0.00 0.00 0.00 60 1012.8
20171216032303 36 209 8.0 13.0 0.00 0.00 0.00 60 1012.8
20171216031804 36 209 7.0 16.0 0.00 0.00 0.00 60 1012.8
20171216031304 36 213 7.0 12.0 0.00 0.00 0.00 61 1012.9
20171216030804 36 202 9.0 12.0 0.00 0.00 0.00 61 1012.9
20171216030303 36 207 7.0 12.0 0.00 0.00 0.00 60 1013.1
20171216025804 36 228 7.0 13.0 0.00 0.00 0.00 60 1013.1
20171216025304 36 214 7.0 12.0 0.00 0.00 0.00 61 1013.2
20171216024803 36 222 6.0 12.0 0.00 0.00 0.00 61 1013.2
20171216024303 36 221 6.0 12.0 0.00 0.00 0.00 61 1013.2
20171216023803 36 206 7.0 14.0 0.00 0.00 0.00 60 1013.2
20171216023303 35 203 6.0 12.0 0.00 0.00 0.00 61 1013.1
20171216022803 35 215 6.0 12.0 0.00 0.00 0.00 61 1013.0
20171216022303 35 230 7.0 13.0 0.00 0.00 0.00 61 1013.0
20171216021803 35 209 5.0 10.0 0.00 0.00 0.00 61 1013.2
20171216021303 35 204 4.0 12.0 0.00 0.00 0.00 61 1013.2
20171216020803 35 231 6.0 12.0 0.00 0.00 0.00 61 1013.2
20171216020303 35 211 8.0 12.0 0.00 0.00 0.00 61 1013.2
20171216015803 35 209 5.0 15.0 0.00 0.00 0.00 61 1013.2
20171216015303 35 212 7.0 15.0 0.00 0.00 0.00 61 1013.2
20171216014803 35 209 6.0 12.0 0.00 0.00 0.00 62 1013.2
20171216014304 35 203 5.0 9.0 0.00 0.00 0.00 62 1013.2
20171216013804 35 213 5.0 12.0 0.00 0.00 0.00 62 1013.2
20171216013303 35 210 5.0 12.0 0.00 0.00 0.00 62 1013.2
20171216012804 35 205 6.0 12.0 0.00 0.00 0.00 61 1013.3
20171216012303 35 211 6.0 14.0 0.00 0.00 0.00 61 1013.2
20171216011803 35 207 4.0 10.0 0.00 0.00 0.00 62 1013.2
20171216011303 35 206 6.0 10.0 0.00 0.00 0.00 62 1013.2
20171216010803 35 201 6.0 13.0 0.00 0.00 0.00 62 1013.2
20171216010304 35 220 7.0 12.0 0.00 0.00 0.00 62 1013.2
20171216005803 35 219 5.0 12.0 0.00 0.00 0.00 62 1013.2
20171216005303 35 230 6.0 12.0 0.00 0.00 0.00 62 1013.2
20171216004804 35 214 5.0 10.0 0.00 0.00 0.00 62 1013.2
20171216004303 35 193 4.0 12.0 0.00 0.00 0.00 62 1013.2
20171216003803 35 207 5.0 9.0 0.00 0.00 0.00 62 1013.3
20171216003304 35 209 5.0 9.0 0.00 0.00 0.00 61 1013.2
20171216002804 35 206 6.0 12.0 0.00 0.00 0.00 62 1013.3
20171216002304 35 208 5.0 9.0 0.00 0.00 0.00 62 1013.4
20171216001804 35 217 4.0 8.0 0.00 0.00 0.00 62 1013.4
20171216001304 35 216 5.0 10.0 0.00 0.00 0.00 62 1013.4
20171216000803 35 240 4.0 9.0 0.00 0.00 0.00 62 1013.4
20171216000303 35 229 6.0 12.0 0.00 0.00 0.00 62 1013.5
20171215235804 35 216 5.0 9.0 0.00 0.00 0.00 62 1013.4
20171215235304 34 218 5.0 10.0 0.00 0.00 0.00 62 1013.3
20171215234804 34 229 5.0 8.0 0.00 0.00 0.00 62 1013.2
20171215234304 34 219 6.0 10.0 0.00 0.00 0.00 62 1013.2
20171215233804 34 216 5.0 9.0 0.00 0.00 0.00 62 1013.2
20171215233304 34 242 7.0 12.0 0.00 0.00 0.00 62 1013.2
20171215232804 34 208 6.0 9.0 0.00 0.00 0.00 62 1013.2
20171215232304 34 215 5.0 13.0 0.00 0.00 0.00 62 1013.1
20171215231804 34 232 6.0 9.0 0.00 0.00 0.00 62 1013.0
20171215231304 34 244 6.0 10.0 0.00 0.00 0.00 62 1013.1
20171215230804 34 239 4.0 12.0 0.00 0.00 0.00 62 1013.1
20171215230304 34 227 7.0 12.0 0.00 0.00 0.00 62 1013.1
20171215225804 34 216 5.0 12.0 0.00 0.00 0.00 62 1013.2
20171215225304 34 218 5.0 10.0 0.00 0.00 0.00 61 1013.2
20171215224803 34 230 4.0 7.0 0.00 0.00 0.00 61 1013.2
20171215224304 34 225 6.0 9.0 0.00 0.00 0.00 61 1013.2
20171215223804 34 228 4.0 12.0 0.00 0.00 0.00 61 1013.2
20171215223303 34 234 5.0 9.0 0.00 0.00 0.00 62 1013.2
20171215222804 34 239 4.0 9.0 0.00 0.00 0.00 62 1013.2
20171215222304 34 243 5.0 12.0 0.00 0.00 0.00 61 1013.2
20171215221803 34 241 4.0 10.0 0.00 0.00 0.00 61 1013.2
20171215221304 34 214 5.0 8.0 0.00 0.00 0.00 61 1013.3
20171215220804 34 240 5.0 9.0 0.00 0.00 0.00 61 1013.3
20171215220303 34 238 5.0 10.0 0.00 0.00 0.00 61 1013.3
20171215215804 34 217 6.0 13.0 0.00 0.00 0.00 61 1013.2
20171215215303 34 222 5.0 9.0 0.00 0.00 0.00 62 1013.2
20171215214804 34 241 5.0 10.0 0.00 0.00 0.00 62 1013.2
20171215214304 34 254 6.0 12.0 0.00 0.00 0.00 62 1013.2
20171215213804 34 240 5.0 8.0 0.00 0.00 0.00 63 1013.0
20171215213304 33 238 5.0 12.0 0.00 0.00 0.00 63 1013.0
20171215212805 33 214 3.0 9.0 0.00 0.00 0.00 64 1013.1
20171215212304 33 243 5.0 9.0 0.00 0.00 0.00 64 1013.1
20171215211804 33 260 5.0 10.0 0.00 0.00 0.00 64 1013.0
20171215211303 33 251 4.0 13.0 0.00 0.00 0.00 65 1013.0
20171215210804 33 271 6.0 10.0 0.00 0.00 0.00 66 1013.1
20171215210304 33 265 4.0 8.0 0.00 0.00 0.00 67 1013.2
20171215205804 33 267 7.0 13.0 0.00 0.00 0.00 67 1013.1
20171215205304 33 243 6.0 10.0 0.00 0.00 0.00 68 1013.1
20171215204804 33 226 4.0 9.0 0.00 0.00 0.00 68 1013.2
20171215204304 33 245 5.0 10.0 0.00 0.00 0.00 68 1013.2
20171215203804 33 247 6.0 13.0 0.00 0.00 0.00 68 1013.1
20171215203304 33 238 6.0 12.0 0.00 0.00 0.00 67 1013.0
20171215202804 34 234 6.0 13.0 0.00 0.00 0.00 67 1013.1
20171215202303 34 292 5.0 12.0 0.00 0.00 0.00 66 1013.1
20171215201804 34 274 6.0 9.0 0.00 0.00 0.00 65 1013.1
20171215201304 34 271 9.0 13.0 0.00 0.00 0.00 64 1013.1
20171215200803 34 271 9.0 14.0 0.00 0.00 0.00 64 1013.1
20171215200303 34 271 10.0 18.0 0.00 0.00 0.00 63 1013.0
20171215195804 34 266 9.0 15.0 0.00 0.00 0.00 64 1013.0
20171215195306 34 274 5.0 12.0 0.00 0.00 0.00 64 1013.0
20171215194803 34 286 10.0 15.0 0.00 0.00 0.00 63 1013.0
20171215194303 34 257 8.0 12.0 0.00 0.00 0.00 62 1013.0
20171215193804 34 249 10.0 15.0 0.00 0.00 0.00 62 1013.0
20171215193304 34 244 4.0 9.0 0.00 0.00 0.00 62 1012.9
20171215192804 34 280 7.0 12.0 0.00 0.00 0.00 61 1013.0
20171215192303 34 243 6.0 13.0 0.00 0.00 0.00 61 1013.0
20171215191803 34 270 7.0 12.0 0.00 0.00 0.00 61 1013.0
20171215191304 33 281 5.0 9.0 0.00 0.00 0.00 62 1012.9
20171215190803 33 284 6.0 12.0 0.00 0.00 0.00 62 1013.1
20171215190304 33 269 5.0 9.0 0.00 0.00 0.00 62 1013.2
20171215185804 33 298 7.0 12.0 0.00 0.00 0.00 62 1013.3
20171215185303 33 269 6.0 12.0 0.00 0.00 0.00 62 1013.3
20171215184804 32 302 7.0 12.0 0.00 0.00 0.00 62 1013.4
20171215184303 32 275 6.0 12.0 0.00 0.00 0.00 62 1013.4
20171215183803 32 261 5.0 12.0 0.00 0.00 0.00 62 1013.4
20171215183304 32 280 9.0 14.0 0.00 0.00 0.00 62 1013.4
20171215182804 32 305 9.0 14.0 0.00 0.00 0.00 61 1013.6
20171215182304 32 286 9.0 15.0 0.00 0.00 0.00 61 1013.8
20171215181804 32 280 9.0 13.0 0.00 0.00 0.00 60 1013.8
20171215181304 32 285 9.0 14.0 0.00 0.00 0.00 60 1013.8
20171215180804 32 283 9.0 15.0 0.00 0.00 0.00 60 1013.9
20171215180303 32 299 12.0 16.0 0.00 0.00 0.00 59 1014.0
20171215175803 32 286 9.0 18.0 0.00 0.00 0.00 58 1014.0
20171215175304 32 307 9.0 17.0 0.00 0.00 0.00 58 1014.0
20171215174804 32 276 10.0 14.0 0.00 0.00 0.00 58 1014.0
20171215174304 32 306 10.0 14.0 0.00 0.00 0.00 58 1014.1
20171215173804 32 276 9.0 14.0 0.00 0.00 0.00 59 1013.9
20171215173304 31 287 10.0 13.0 0.00 0.00 0.00 59 1013.9
20171215172804 31 300 10.0 18.0 0.00 0.00 0.00 59 1013.9
20171215172304 31 290 7.0 12.0 0.00 0.00 0.00 61 1013.9
20171215171804 31 276 7.0 14.0 0.00 0.00 0.00 61 1013.9
20171215171305 31 275 7.0 12.0 0.00 0.00 0.00 61 1014.1
20171215170804 31 289 7.0 14.0 0.00 0.00 0.00 61 1014.4
20171215170304 31 278 9.0 15.0 0.00 0.00 0.00 62 1014.4
20171215165804 30 281 10.0 14.0 0.00 0.00 0.00 62 1014.5
20171215165303 30 299 10.0 18.0 0.00 0.00 0.00 62 1014.5
20171215164804 30 284 10.0 15.0 0.00 0.00 0.00 62 1014.6
20171215164304 30 275 7.0 12.0 0.00 0.00 0.00 62 1014.7
20171215163804 30 301 9.0 15.0 0.00 0.00 0.00 63 1014.7
20171215163304 30 272 8.0 12.0 0.00 0.00 0.00 63 1014.7
20171215162804 29 282 7.0 13.0 0.00 0.00 0.00 63 1014.8
20171215162304 29 298 9.0 15.0 0.00 0.00 0.00 63 1014.7
20171215161804 29 276 9.0 13.0 0.00 0.00 0.00 64 1014.7
20171215161304 29 280 7.0 14.0 0.00 0.00 0.00 65 1014.8
20171215160804 29 283 10.0 16.0 0.00 0.00 0.00 64 1014.8
20171215160304 29 277 7.0 12.0 0.00 0.00 0.00 64 1014.7
20171215155804 29 278 7.0 14.0 0.00 0.00 0.00 65 1014.7
20171215155305 28 267 9.0 14.0 0.00 0.00 0.00 65 1014.6
20171215154804 28 275 8.0 13.0 0.00 0.00 0.00 65 1014.5
20171215154304 28 287 12.0 18.0 0.00 0.00 0.00 65 1014.5
20171215153804 28 278 8.0 13.0 0.00 0.00 0.00 65 1014.4
20171215153305 28 276 6.0 10.0 0.00 0.00 0.00 65 1014.4
20171215152804 28 293 8.0 12.0 0.00 0.00 0.00 64 1014.5
20171215152304 28 273 7.0 12.0 0.00 0.00 0.00 64 1014.5
20171215151804 28 302 9.0 13.0 0.00 0.00 0.00 65 1014.5
20171215151304 28 291 7.0 12.0 0.00 0.00 0.00 65 1014.5
20171215150805 27 291 9.0 14.0 0.00 0.00 0.00 66 1014.6
20171215150304 27 310 9.0 16.0 0.00 0.00 0.00 67 1014.6
20171215145804 27 278 10.0 15.0 0.00 0.00 0.00 67 1014.5
20171215145304 27 275 9.0 12.0 0.00 0.00 0.00 68 1014.5
20171215144304 27 290 8.0 13.0 0.00 0.00 0.00 73 1014.2
20171215143804 27 300 8.0 13.0 0.00 0.00 0.00 72 1014.3
20171215143304 27 289 7.0 12.0 0.00 0.00 0.00 72 1014.2
20171215142804 27 289 7.0 13.0 0.00 0.00 0.00 72 1014.2
20171215142304 27 265 5.0 14.0 0.00 0.00 0.00 71 1014.1
20171215141804 27 290 10.0 15.0 0.00 0.00 0.00 71 1014.1
20171215141304 27 291 6.0 8.0 0.00 0.00 0.00 71 1014.1
20171215140805 27 264 5.0 10.0 0.00 0.00 0.00 71 1014.0
20171215140304 27 273 10.0 14.0 0.00 0.00 0.00 71 1014.0
20171215135804 27 278 7.0 12.0 0.00 0.00 0.00 73 1014.0
20171215135304 27 269 6.0 12.0 0.00 0.00 0.00 75 1014.0
20171215134804 27 241 5.0 10.0 0.00 0.00 0.00 76 1013.9
20171215134305 27 271 6.0 12.0 0.00 0.00 0.00 77 1013.8
20171215133804 27 269 4.0 6.0 0.00 0.00 0.00 77 1013.8
20171215133304 27 248 5.0 9.0 0.00 0.00 0.00 77 1013.9
20171215132804 27 238 6.0 12.0 0.00 0.00 0.00 77 1014.0
20171215132305 27 239 4.0 9.0 0.00 0.00 0.00 77 1014.0
20171215131804 27 263 3.0 12.0 0.00 0.00 0.00 77 1014.0
20171215131304 27 253 5.0 10.0 0.00 0.00 0.00 77 1014.0